createdAt,value
2022-10-31T00:00:48.623Z,11.00
2022-10-31T00:03:18.115Z,10.90
2022-10-31T00:05:47.552Z,11.00
2022-10-31T00:08:15.738Z,10.50
2022-10-31T00:10:45.060Z,10.90
2022-10-31T00:13:14.863Z,11.40
2022-10-31T00:15:42.852Z,10.90
2022-10-31T00:18:12.318Z,10.90
2022-10-31T00:20:41.586Z,10.90
2022-10-31T00:23:09.744Z,10.80
2022-10-31T00:25:39.691Z,11.10
2022-10-31T00:28:09.206Z,11.20
2022-10-31T00:30:37.098Z,10.80
2022-10-31T00:33:09.215Z,10.80
2022-10-31T00:35:37.102Z,11.40
2022-10-31T00:38:06.463Z,10.70
2022-10-31T00:40:34.324Z,10.70
2022-10-31T00:43:02.770Z,10.70
2022-10-31T00:45:31.074Z,10.70
2022-10-31T00:47:59.294Z,10.70
2022-10-31T00:50:27.481Z,10.50
2022-10-31T00:52:55.634Z,10.60
2022-10-31T00:55:24.893Z,10.60
2022-10-31T00:57:52.857Z,10.70
2022-10-31T01:00:20.950Z,10.30
2022-10-31T01:02:48.998Z,10.60
2022-10-31T01:05:17.090Z,10.60
2022-10-31T01:07:45.315Z,10.60
2022-10-31T01:10:13.449Z,10.80
2022-10-31T01:12:44.829Z,10.50
2022-10-31T01:15:14.759Z,10.50
2022-10-31T01:17:43.777Z,10.60
2022-10-31T01:20:14.314Z,10.50
2022-10-31T01:22:42.235Z,10.60
2022-10-31T01:25:11.225Z,10.50
2022-10-31T01:27:39.222Z,10.50
2022-10-31T01:30:09.713Z,10.50
2022-10-31T01:32:37.672Z,10.40
2022-10-31T01:35:06.037Z,10.40
2022-10-31T01:37:34.040Z,10.40
2022-10-31T01:40:01.950Z,10.40
2022-10-31T01:42:29.825Z,10.20
2022-10-31T01:45:01.457Z,10.10
2022-10-31T01:47:40.225Z,10.40
2022-10-31T01:50:15.783Z,10.60
2022-10-31T01:52:46.597Z,10.20
2022-10-31T01:55:17.874Z,10.20
2022-10-31T01:57:48.748Z,10.30
2022-10-31T02:00:19.986Z,10.40
2022-10-31T02:02:51.351Z,10.30
2022-10-31T02:05:22.305Z,10.30
2022-10-31T02:07:55.120Z,9.70
2022-10-31T02:10:25.081Z,10.60
2022-10-31T02:12:54.395Z,10.30
2022-10-31T02:15:22.329Z,10.30
2022-10-31T02:17:51.811Z,10.20
2022-10-31T02:20:22.540Z,10.20
2022-10-31T02:23:25.307Z,10.20
2022-10-31T02:26:26.214Z,10.20
2022-10-31T02:29:25.278Z,10.20
2022-10-31T02:32:01.321Z,9.70
2022-10-31T02:34:35.070Z,10.20
2022-10-31T02:37:13.817Z,10.20
2022-10-31T02:39:50.558Z,9.90
2022-10-31T02:42:26.045Z,10.30
2022-10-31T02:45:02.467Z,9.80
2022-10-31T02:47:38.711Z,10.20
2022-10-31T02:50:11.343Z,10.10
2022-10-31T02:52:39.218Z,10.10
2022-10-31T02:55:34.274Z,10.10
2022-10-31T02:58:06.547Z,9.80
2022-10-31T03:00:44.815Z,10.10
2022-10-31T03:03:21.563Z,10.00
2022-10-31T03:05:57.029Z,10.00
2022-10-31T03:08:29.470Z,9.70
2022-10-31T03:10:59.143Z,10.10
2022-10-31T03:13:35.253Z,9.90
2022-10-31T03:16:10.624Z,9.90
2022-10-31T03:18:45.881Z,9.90
2022-10-31T03:21:19.697Z,9.90
2022-10-31T03:23:49.330Z,10.00
2022-10-31T03:26:18.882Z,9.90
2022-10-31T03:28:50.871Z,9.90
2022-10-31T03:31:21.305Z,9.90
2022-10-31T03:33:53.009Z,9.90
2022-10-31T03:36:22.209Z,9.90
2022-10-31T03:38:50.604Z,9.90
2022-10-31T03:41:22.188Z,9.90
2022-10-31T03:43:57.005Z,9.90
2022-10-31T03:46:25.986Z,9.50
2022-10-31T03:48:55.542Z,9.80
2022-10-31T03:51:26.805Z,9.60
2022-10-31T03:53:58.599Z,10.20
2022-10-31T03:56:33.562Z,11.50
2022-10-31T03:59:06.341Z,10.20
2022-10-31T04:01:39.887Z,9.80
2022-10-31T04:04:10.082Z,9.80
2022-10-31T04:06:40.856Z,10.00
2022-10-31T04:09:11.316Z,9.80
2022-10-31T04:11:45.948Z,10.40
2022-10-31T04:14:14.149Z,9.80
2022-10-31T04:16:44.978Z,9.70
2022-10-31T04:19:14.876Z,11.40
2022-10-31T04:21:44.287Z,9.70
2022-10-31T04:24:12.825Z,9.60
2022-10-31T04:26:40.712Z,9.70
2022-10-31T04:29:08.613Z,9.70
2022-10-31T04:31:36.510Z,9.70
2022-10-31T04:34:04.413Z,9.70
2022-10-31T04:36:33.645Z,9.70
2022-10-31T04:39:01.528Z,9.40
2022-10-31T04:41:29.404Z,9.70
2022-10-31T04:43:57.269Z,9.40
2022-10-31T04:46:25.250Z,9.90
2022-10-31T04:48:53.135Z,9.70
2022-10-31T04:51:21.013Z,9.70
2022-10-31T04:53:50.253Z,9.70
2022-10-31T04:56:18.182Z,9.60
2022-10-31T04:58:46.252Z,11.00
2022-10-31T05:01:15.303Z,9.70
2022-10-31T05:03:43.306Z,9.50
2022-10-31T05:06:11.206Z,9.50
2022-10-31T05:08:39.101Z,9.50
2022-10-31T05:11:08.329Z,10.30
2022-10-31T05:13:36.458Z,10.10
2022-10-31T05:16:04.365Z,10.10
2022-10-31T05:18:32.250Z,9.50
2022-10-31T05:21:00.132Z,9.90
2022-10-31T05:23:28.044Z,9.60
2022-10-31T05:25:55.988Z,9.70
2022-10-31T05:28:25.284Z,9.70
2022-10-31T05:30:53.224Z,9.90
2022-10-31T05:33:21.089Z,9.80
2022-10-31T05:35:49.056Z,9.60
2022-10-31T05:38:16.924Z,10.30
2022-10-31T05:40:44.851Z,9.60
2022-10-31T05:43:12.980Z,9.60
2022-10-31T05:45:42.253Z,9.30
2022-10-31T05:48:10.622Z,9.90
2022-10-31T05:50:38.494Z,9.70
2022-10-31T05:53:07.374Z,9.50
2022-10-31T05:55:35.294Z,9.60
2022-10-31T05:58:03.534Z,9.60
2022-10-31T06:00:32.080Z,9.20
2022-10-31T06:03:02.326Z,9.40
2022-10-31T06:05:30.820Z,9.50
2022-10-31T06:07:59.677Z,9.50
2022-10-31T06:10:28.249Z,9.50
2022-10-31T06:12:56.184Z,9.50
2022-10-31T06:15:24.949Z,9.70
2022-10-31T06:18:05.634Z,9.40
2022-10-31T06:20:34.115Z,9.60
2022-10-31T06:23:02.810Z,9.50
2022-10-31T06:25:31.158Z,9.50
2022-10-31T06:27:59.280Z,9.70
2022-10-31T06:30:27.561Z,9.50
2022-10-31T06:32:56.576Z,9.30
2022-10-31T06:35:25.849Z,9.30
2022-10-31T06:37:54.354Z,9.40
2022-10-31T06:40:22.707Z,9.40
2022-10-31T06:42:58.660Z,9.40
2022-10-31T06:45:26.608Z,9.40
2022-10-31T06:48:15.971Z,9.30
2022-10-31T06:50:43.972Z,9.10
2022-10-31T06:53:12.398Z,9.50
2022-10-31T06:55:40.501Z,9.40
2022-10-31T06:58:09.182Z,9.10
2022-10-31T07:00:38.065Z,10.40
2022-10-31T07:03:07.851Z,9.40
2022-10-31T07:05:35.749Z,9.80
2022-10-31T07:08:06.864Z,9.20
2022-10-31T07:10:40.106Z,9.40
2022-10-31T07:13:12.083Z,9.30
2022-10-31T07:15:41.091Z,10.00
2022-10-31T07:18:11.061Z,9.40
2022-10-31T07:20:39.546Z,9.50
2022-10-31T07:23:09.631Z,9.30
2022-10-31T07:25:37.488Z,9.50
2022-10-31T07:28:05.549Z,9.60
2022-10-31T07:30:33.720Z,9.60
2022-10-31T07:33:01.633Z,9.90
2022-10-31T07:35:30.992Z,9.80
2022-10-31T07:37:59.854Z,9.80
2022-10-31T07:40:31.803Z,9.90
2022-10-31T07:43:00.260Z,9.90
2022-10-31T07:45:28.131Z,9.70
2022-10-31T07:47:56.085Z,10.00
2022-10-31T07:50:25.468Z,9.80
2022-10-31T07:53:00.868Z,10.00
2022-10-31T07:55:31.251Z,10.10
2022-10-31T07:58:01.073Z,10.10
2022-10-31T08:00:29.236Z,10.60
2022-10-31T08:03:01.572Z,10.00
2022-10-31T08:05:29.595Z,10.30
2022-10-31T08:07:59.794Z,10.10
2022-10-31T08:10:30.047Z,10.10
2022-10-31T08:12:59.661Z,10.20
2022-10-31T08:15:28.226Z,10.30
2022-10-31T08:17:56.346Z,10.20
2022-10-31T08:20:24.535Z,10.40
2022-10-31T08:22:57.446Z,10.30
2022-10-31T08:25:27.024Z,10.50
2022-10-31T08:27:58.212Z,10.40
2022-10-31T08:30:29.189Z,10.60
2022-10-31T08:33:01.693Z,10.60
2022-10-31T08:35:29.492Z,10.50
2022-10-31T08:37:58.456Z,10.60
2022-10-31T08:40:27.861Z,11.00
2022-10-31T08:43:01.563Z,10.90
2022-10-31T08:45:29.994Z,11.00
2022-10-31T08:48:01.535Z,11.20
2022-10-31T08:50:31.383Z,11.30
2022-10-31T08:53:05.886Z,11.40
2022-10-31T08:55:35.721Z,11.80
2022-10-31T08:58:06.358Z,11.30
2022-10-31T09:00:34.578Z,11.50
2022-10-31T09:03:04.052Z,11.50
2022-10-31T09:05:33.369Z,11.60
2022-10-31T09:08:03.053Z,11.70
2022-10-31T09:10:32.826Z,11.90
2022-10-31T09:13:02.191Z,11.80
2022-10-31T09:15:32.294Z,12.00
2022-10-31T09:18:00.661Z,11.80
2022-10-31T09:20:29.278Z,12.00
2022-10-31T09:22:59.155Z,12.20
2022-10-31T09:25:27.782Z,12.30
2022-10-31T09:27:59.828Z,12.20
2022-10-31T09:30:28.666Z,12.00
2022-10-31T09:33:06.849Z,12.30
2022-10-31T09:35:34.995Z,12.40
2022-10-31T09:38:05.055Z,12.20
2022-10-31T09:40:36.570Z,12.50
2022-10-31T09:43:14.952Z,12.40
2022-10-31T09:45:50.529Z,12.60
2022-10-31T09:48:56.211Z,12.40
2022-10-31T09:51:30.183Z,12.70
2022-10-31T09:54:04.132Z,12.70
2022-10-31T09:56:34.147Z,12.80
2022-10-31T09:59:05.294Z,12.60
2022-10-31T10:01:41.932Z,13.00
2022-10-31T10:04:26.713Z,12.90
2022-10-31T10:06:54.890Z,12.70
2022-10-31T10:09:27.071Z,12.90
2022-10-31T10:12:07.233Z,13.00
2022-10-31T10:14:50.275Z,13.00
2022-10-31T10:17:28.423Z,13.00
2022-10-31T10:20:13.849Z,12.80
2022-10-31T10:22:49.700Z,13.10
2022-10-31T10:25:24.252Z,12.90
2022-10-31T10:28:04.270Z,13.20
2022-10-31T10:30:37.876Z,13.50
2022-10-31T10:33:11.440Z,13.40
2022-10-31T10:35:45.912Z,13.50
2022-10-31T10:38:22.616Z,13.30
2022-10-31T10:40:50.929Z,13.80
2022-10-31T10:43:23.317Z,13.60
2022-10-31T10:46:11.759Z,13.70
2022-10-31T10:48:45.340Z,13.60
2022-10-31T10:51:39.132Z,13.90
2022-10-31T10:54:41.115Z,13.70
2022-10-31T10:57:22.231Z,13.50
2022-10-31T10:59:50.418Z,13.70
2022-10-31T11:02:20.475Z,13.80
2022-10-31T11:04:52.743Z,13.90
2022-10-31T11:07:21.825Z,14.00
2022-10-31T11:09:49.813Z,14.10
2022-10-31T11:12:23.957Z,14.40
2022-10-31T11:14:55.418Z,14.40
2022-10-31T11:17:31.399Z,14.50
2022-10-31T11:20:05.487Z,14.90
2022-10-31T11:22:34.761Z,14.60
2022-10-31T11:25:02.650Z,14.50
2022-10-31T11:27:30.606Z,14.60
2022-10-31T11:30:07.002Z,14.80
2022-10-31T11:32:35.009Z,14.70
2022-10-31T11:35:10.792Z,14.80
2022-10-31T11:37:45.693Z,14.70
2022-10-31T11:40:19.954Z,15.00
2022-10-31T11:42:49.201Z,15.00
2022-10-31T11:45:19.181Z,14.80
2022-10-31T11:47:54.016Z,14.90
2022-10-31T11:50:26.988Z,15.20
2022-10-31T11:52:57.141Z,15.20
2022-10-31T11:55:34.561Z,15.20
2022-10-31T11:58:03.178Z,15.20
2022-10-31T12:00:33.388Z,15.50
2022-10-31T12:03:14.492Z,15.20
2022-10-31T12:05:45.745Z,15.10
2022-10-31T12:08:15.934Z,15.40
2022-10-31T12:10:53.227Z,15.40
2022-10-31T12:13:35.994Z,16.00
2022-10-31T12:16:13.584Z,15.50
2022-10-31T12:18:55.174Z,15.90
2022-10-31T12:21:49.457Z,15.70
2022-10-31T12:24:29.896Z,15.70
2022-10-31T12:27:09.585Z,15.90
2022-10-31T12:30:04.454Z,15.60
2022-10-31T12:32:42.688Z,15.90
2022-10-31T12:35:28.133Z,15.90
2022-10-31T12:38:17.722Z,16.00
2022-10-31T12:41:01.230Z,16.00
2022-10-31T12:43:38.452Z,16.00
2022-10-31T12:46:11.934Z,16.20
2022-10-31T12:48:55.509Z,16.40
2022-10-31T12:51:35.065Z,16.50
2022-10-31T12:54:18.626Z,16.30
2022-10-31T12:56:57.445Z,16.50
2022-10-31T12:59:31.879Z,16.40
2022-10-31T13:02:04.026Z,16.80
2022-10-31T13:04:42.133Z,16.60
2022-10-31T13:07:17.694Z,16.80
2022-10-31T13:09:50.202Z,16.40
2022-10-31T13:12:22.810Z,16.80
2022-10-31T13:14:54.287Z,16.60
2022-10-31T13:17:30.028Z,16.80
2022-10-31T13:20:15.629Z,17.30
2022-10-31T13:22:47.737Z,16.90
2022-10-31T13:25:19.711Z,17.00
2022-10-31T13:27:53.342Z,16.60
2022-10-31T13:30:23.415Z,17.00
2022-10-31T13:32:56.614Z,16.60
2022-10-31T13:35:31.142Z,16.70
2022-10-31T13:38:11.094Z,16.60
2022-10-31T13:40:46.678Z,16.80
2022-10-31T13:43:27.987Z,16.90
2022-10-31T13:45:57.310Z,16.50
2022-10-31T13:48:38.248Z,17.00
2022-10-31T13:51:10.148Z,17.20
2022-10-31T13:53:45.009Z,16.40
2022-10-31T13:56:24.564Z,16.30
2022-10-31T13:59:02.128Z,16.30
2022-10-31T14:01:31.042Z,16.40
2022-10-31T14:04:12.635Z,16.70
2022-10-31T14:06:47.442Z,16.40
2022-10-31T14:09:23.821Z,16.30
2022-10-31T14:11:52.763Z,16.30
2022-10-31T14:14:24.526Z,16.10
2022-10-31T14:16:58.258Z,16.00
2022-10-31T14:19:27.962Z,16.30
2022-10-31T14:21:58.354Z,16.40
2022-10-31T14:24:38.241Z,16.20
2022-10-31T14:27:22.655Z,16.00
2022-10-31T14:29:52.119Z,15.90
2022-10-31T14:32:24.330Z,16.60
2022-10-31T14:34:55.919Z,16.50
2022-10-31T14:37:49.261Z,16.10
2022-10-31T14:40:28.760Z,16.20
2022-10-31T14:43:18.443Z,16.00
2022-10-31T14:45:57.184Z,16.60
2022-10-31T14:48:55.506Z,15.90
2022-10-31T14:51:27.424Z,16.10
2022-10-31T14:53:57.431Z,16.50
2022-10-31T14:56:27.488Z,15.90
2022-10-31T14:58:57.697Z,16.40
2022-10-31T15:01:29.863Z,15.80
2022-10-31T15:06:53.653Z,16.00
2022-10-31T15:09:25.998Z,15.90
2022-10-31T15:11:54.328Z,16.00
2022-10-31T15:14:26.138Z,15.90
2022-10-31T15:16:56.285Z,15.70
2022-10-31T15:19:26.298Z,16.20
2022-10-31T15:21:56.438Z,16.30
2022-10-31T15:24:26.803Z,16.20
2022-10-31T15:26:59.726Z,16.00
2022-10-31T15:29:31.996Z,16.00
2022-10-31T15:32:11.369Z,16.20
2022-10-31T15:34:41.121Z,16.50
2022-10-31T15:37:14.730Z,16.00
2022-10-31T15:39:42.810Z,15.50
2022-10-31T15:42:20.468Z,16.70
2022-10-31T15:44:51.509Z,15.70
2022-10-31T15:47:23.155Z,15.30
2022-10-31T15:49:53.617Z,15.50
2022-10-31T15:52:30.618Z,15.90
2022-10-31T15:55:01.923Z,15.60
2022-10-31T15:57:29.996Z,15.70
2022-10-31T15:59:58.250Z,15.60
2022-10-31T16:02:29.501Z,15.50
2022-10-31T16:05:00.423Z,15.90
2022-10-31T16:07:29.859Z,15.40
2022-10-31T16:09:59.710Z,15.40
2022-10-31T16:12:32.307Z,16.00
2022-10-31T16:15:00.257Z,17.20
2022-10-31T16:17:30.166Z,16.20
2022-10-31T16:20:01.985Z,15.30
2022-10-31T16:22:32.771Z,15.50
2022-10-31T16:25:06.980Z,15.40
2022-10-31T16:27:37.910Z,16.70
2022-10-31T16:30:31.605Z,15.80
2022-10-31T16:33:02.494Z,15.30
2022-10-31T16:35:36.494Z,15.50
2022-10-31T16:38:04.731Z,15.30
2022-10-31T16:40:33.792Z,15.30
2022-10-31T16:43:03.084Z,15.60
2022-10-31T16:45:33.301Z,15.80
2022-10-31T16:48:06.075Z,15.10
2022-10-31T16:50:34.497Z,16.40
2022-10-31T16:53:17.725Z,15.40
2022-10-31T16:55:48.041Z,15.10
2022-10-31T16:58:23.607Z,15.40
2022-10-31T17:00:52.060Z,15.10
2022-10-31T17:03:22.044Z,15.20
2022-10-31T17:05:50.183Z,15.30
2022-10-31T17:08:18.432Z,15.20
2022-10-31T17:10:47.763Z,15.00
2022-10-31T17:13:20.743Z,14.90
2022-10-31T17:15:52.296Z,14.90
2022-10-31T17:18:26.064Z,15.00
2022-10-31T17:20:59.647Z,14.90
2022-10-31T17:23:28.141Z,14.80
2022-10-31T17:25:56.254Z,14.90
2022-10-31T17:28:25.129Z,14.70
2022-10-31T17:30:54.741Z,14.60
2022-10-31T17:33:24.111Z,14.90
2022-10-31T17:35:52.105Z,15.30
2022-10-31T17:38:20.015Z,14.70
2022-10-31T17:43:20.838Z,14.50
2022-10-31T17:45:48.972Z,14.50
2022-10-31T17:48:16.869Z,14.60
2022-10-31T17:50:46.160Z,14.50
2022-10-31T17:53:14.080Z,14.60
2022-10-31T17:55:42.032Z,14.60
2022-10-31T17:58:12.274Z,14.40
2022-10-31T18:00:41.343Z,14.30
2022-10-31T18:03:09.539Z,14.30
2022-10-31T18:05:37.597Z,14.50
2022-10-31T18:08:06.973Z,14.40
2022-10-31T18:10:34.914Z,14.20
2022-10-31T18:13:03.206Z,14.30
2022-10-31T18:15:31.334Z,15.50
2022-10-31T18:17:59.530Z,14.00
2022-10-31T18:20:27.722Z,14.00
2022-10-31T18:22:55.711Z,14.60
2022-10-31T18:25:25.130Z,14.10
2022-10-31T18:27:53.055Z,14.00
2022-10-31T18:30:21.059Z,13.90
2022-10-31T18:32:51.157Z,14.70
2022-10-31T18:35:22.059Z,14.00
2022-10-31T18:37:49.987Z,14.40
2022-10-31T18:40:18.490Z,14.10
2022-10-31T18:42:47.885Z,14.00
2022-10-31T18:45:32.571Z,13.80
2022-10-31T18:48:01.915Z,14.00
2022-10-31T18:50:30.105Z,13.80
2022-10-31T18:52:58.229Z,13.80
2022-10-31T18:55:26.269Z,13.70
2022-10-31T18:57:57.226Z,13.80
2022-10-31T19:00:25.525Z,13.90
2022-10-31T19:02:56.361Z,13.90
2022-10-31T19:05:24.642Z,13.70
2022-10-31T19:07:52.626Z,13.80
2022-10-31T19:10:20.525Z,13.80
2022-10-31T19:12:48.456Z,13.50
2022-10-31T19:15:17.848Z,13.60
2022-10-31T19:17:46.573Z,13.80
2022-10-31T19:20:15.370Z,13.60
2022-10-31T19:22:43.345Z,13.50
2022-10-31T19:25:11.417Z,13.70
2022-10-31T19:27:40.038Z,13.50
2022-10-31T19:30:09.657Z,13.90
2022-10-31T19:32:39.308Z,13.60
2022-10-31T19:35:09.263Z,13.60
2022-10-31T19:37:37.598Z,13.50
2022-10-31T19:40:07.422Z,13.40
2022-10-31T19:42:35.598Z,13.60
2022-10-31T19:45:03.674Z,13.50
2022-10-31T19:47:31.700Z,13.50
2022-10-31T19:50:00.971Z,13.30
2022-10-31T19:52:28.976Z,14.20
2022-10-31T19:54:56.918Z,13.40
2022-10-31T19:57:48.360Z,13.30
2022-10-31T20:00:13.988Z,13.20
2022-10-31T20:02:41.934Z,13.40
2022-10-31T20:05:11.433Z,13.20
2022-10-31T20:07:39.393Z,13.30
2022-10-31T20:10:08.700Z,13.50
2022-10-31T20:12:36.664Z,13.40
2022-10-31T20:15:05.048Z,14.70
2022-10-31T20:17:33.104Z,13.50
2022-10-31T20:20:02.947Z,13.80
2022-10-31T20:22:32.228Z,13.40
2022-10-31T20:25:00.408Z,13.50
2022-10-31T20:27:28.751Z,14.00
2022-10-31T20:29:56.885Z,13.80
2022-10-31T20:32:24.877Z,13.50
2022-10-31T20:34:52.856Z,13.70
2022-10-31T20:37:20.850Z,13.40
2022-10-31T20:39:52.660Z,14.10
2022-10-31T20:42:23.937Z,13.60
2022-10-31T20:44:54.638Z,13.50
2022-10-31T20:47:25.684Z,13.60
2022-10-31T20:49:53.916Z,14.10
2022-10-31T20:52:21.998Z,13.60
2022-10-31T20:54:51.309Z,13.70
2022-10-31T20:57:19.242Z,13.50
2022-10-31T20:59:47.208Z,13.90
2022-10-31T21:02:15.230Z,14.10
2022-10-31T21:04:43.472Z,13.80
2022-10-31T21:07:11.449Z,13.70
2022-10-31T21:09:39.376Z,14.10
2022-10-31T21:12:08.898Z,14.30
2022-10-31T21:14:37.695Z,14.00
2022-10-31T21:17:06.833Z,14.50
2022-10-31T21:19:36.201Z,13.80
2022-10-31T21:22:04.766Z,14.40
2022-10-31T21:24:32.712Z,14.00
2022-10-31T21:27:02.603Z,14.20
2022-10-31T21:29:32.233Z,14.40
2022-10-31T21:32:00.168Z,14.20
2022-10-31T21:34:28.119Z,14.10
2022-10-31T21:36:56.067Z,14.10
2022-10-31T21:39:23.992Z,14.50
2022-10-31T21:41:51.953Z,14.30
2022-10-31T21:44:19.996Z,14.10
2022-10-31T21:46:49.491Z,14.50
2022-10-31T21:49:17.494Z,14.50
2022-10-31T21:51:46.848Z,14.50
2022-10-31T21:54:30.047Z,14.60
2022-10-31T21:56:59.600Z,14.70
2022-10-31T21:59:28.179Z,14.50
2022-10-31T22:01:59.835Z,14.50
2022-10-31T22:04:28.305Z,15.00
2022-10-31T22:06:56.330Z,14.70
2022-10-31T22:09:24.387Z,14.90
2022-10-31T22:11:52.658Z,14.60
2022-10-31T22:14:20.597Z,14.80
2022-10-31T22:16:48.542Z,14.70
2022-10-31T22:19:17.795Z,16.20
2022-10-31T22:21:48.826Z,15.00
2022-10-31T22:24:18.413Z,14.60
2022-10-31T22:26:46.487Z,14.70
2022-10-31T22:29:16.393Z,15.00
2022-10-31T22:31:45.982Z,14.70
2022-10-31T22:34:15.238Z,14.60
2022-10-31T22:36:44.793Z,14.50
2022-10-31T22:39:14.245Z,14.60
2022-10-31T22:41:42.194Z,14.60
2022-10-31T22:44:10.448Z,14.50
2022-10-31T22:46:40.081Z,14.70
2022-10-31T22:49:10.934Z,14.50
2022-10-31T22:51:40.596Z,14.40
2022-10-31T22:54:13.797Z,14.50
2022-10-31T22:56:41.843Z,14.80
2022-10-31T22:59:12.865Z,14.50
2022-10-31T23:01:41.017Z,14.40
2022-10-31T23:06:38.406Z,14.60
2022-10-31T23:09:09.058Z,14.40
2022-10-31T23:11:40.147Z,14.40
2022-10-31T23:14:13.799Z,14.40
2022-10-31T23:16:47.487Z,14.70
2022-10-31T23:19:17.416Z,15.00
2022-10-31T23:21:56.490Z,14.80
2022-10-31T23:24:28.673Z,14.80
2022-10-31T23:27:06.746Z,14.40
2022-10-31T23:29:35.856Z,14.50
2022-10-31T23:32:04.833Z,14.70
2022-10-31T23:34:32.837Z,14.60
2022-10-31T23:37:00.799Z,14.50
2022-10-31T23:39:30.303Z,14.60
2022-10-31T23:41:58.231Z,14.70
2022-10-31T23:44:26.214Z,14.80
2022-10-31T23:46:54.198Z,14.60
2022-10-31T23:49:22.121Z,15.10
2022-10-31T23:51:50.058Z,14.60
2022-10-31T23:54:18.010Z,14.60
2022-10-31T23:56:47.310Z,14.70
2022-10-31T23:59:15.451Z,15.10
